createdAt,value
2023-03-10T00:01:38.055Z,99.90
2023-03-10T00:04:42.485Z,99.90
2023-03-10T00:07:47.639Z,99.90
2023-03-10T00:10:52.688Z,99.90
2023-03-10T00:13:57.075Z,99.90
2023-03-10T00:17:01.520Z,99.90
2023-03-10T00:20:08.032Z,99.90
2023-03-10T00:23:12.258Z,99.90
2023-03-10T00:26:18.753Z,99.90
2023-03-10T00:29:23.348Z,99.90
2023-03-10T00:32:28.216Z,99.90
2023-03-10T00:35:32.838Z,99.90
2023-03-10T00:38:37.955Z,99.90
2023-03-10T00:41:42.788Z,99.90
2023-03-10T00:44:47.492Z,99.90
2023-03-10T00:47:52.931Z,99.90
2023-03-10T00:50:57.586Z,99.90
2023-03-10T00:54:03.025Z,99.90
2023-03-10T00:57:08.433Z,99.90
2023-03-10T01:00:16.002Z,99.90
2023-03-10T01:03:20.519Z,99.90
2023-03-10T01:06:26.057Z,99.90
2023-03-10T01:09:30.970Z,99.90
2023-03-10T01:12:35.442Z,99.90
2023-03-10T01:15:40.935Z,99.90
2023-03-10T01:18:45.287Z,99.90
2023-03-10T01:21:49.580Z,99.90
2023-03-10T01:24:53.888Z,99.90
2023-03-10T01:27:58.420Z,99.90
2023-03-10T01:31:05.385Z,99.90
2023-03-10T01:34:10.105Z,99.90
2023-03-10T01:37:14.446Z,99.90
2023-03-10T01:40:19.339Z,99.90
2023-03-10T01:43:32.908Z,99.90
2023-03-10T01:46:47.041Z,99.90
2023-03-10T01:49:56.192Z,99.90
2023-03-10T01:53:00.424Z,99.90
2023-03-10T01:56:06.335Z,99.90
2023-03-10T01:59:11.320Z,99.90
2023-03-10T02:02:16.051Z,99.90
2023-03-10T02:05:21.877Z,99.90
2023-03-10T02:08:37.887Z,99.90
2023-03-10T02:11:43.353Z,99.90
2023-03-10T02:14:52.724Z,99.90
2023-03-10T02:17:57.430Z,99.90
2023-03-10T02:21:08.012Z,99.90
2023-03-10T02:24:19.188Z,99.90
2023-03-10T02:27:27.815Z,99.90
2023-03-10T02:30:36.314Z,99.90
2023-03-10T02:33:43.884Z,99.90
2023-03-10T02:36:48.289Z,99.90
2023-03-10T02:39:52.855Z,99.90
2023-03-10T02:42:58.267Z,99.90
2023-03-10T02:46:05.174Z,99.90
2023-03-10T02:49:10.912Z,99.90
2023-03-10T02:52:30.867Z,99.90
2023-03-10T02:55:35.082Z,99.90
2023-03-10T02:58:39.708Z,99.90
2023-03-10T03:01:46.197Z,99.90
2023-03-10T03:04:50.832Z,99.90
2023-03-10T03:07:55.493Z,99.90
2023-03-10T03:11:00.384Z,99.90
2023-03-10T03:14:04.801Z,99.90
2023-03-10T03:17:09.791Z,99.90
2023-03-10T03:20:15.315Z,99.90
2023-03-10T03:23:23.153Z,99.90
2023-03-10T03:26:29.069Z,99.90
2023-03-10T03:29:42.476Z,99.90
2023-03-10T03:32:46.806Z,99.90
2023-03-10T03:35:52.043Z,99.90
2023-03-10T03:38:57.104Z,99.90
2023-03-10T03:42:02.632Z,99.90
2023-03-10T03:45:15.727Z,99.90
2023-03-10T03:48:22.402Z,99.90
2023-03-10T03:51:27.967Z,99.90
2023-03-10T03:54:33.677Z,99.90
2023-03-10T03:57:38.914Z,99.90
2023-03-10T04:00:43.818Z,99.90
2023-03-10T04:03:48.361Z,99.90
2023-03-10T04:06:54.193Z,99.90
2023-03-10T04:09:59.456Z,99.90
2023-03-10T04:13:04.291Z,99.90
2023-03-10T04:16:09.062Z,99.90
2023-03-10T04:19:15.964Z,99.90
2023-03-10T04:22:23.737Z,99.90
2023-03-10T04:25:28.321Z,99.90
2023-03-10T04:28:33.160Z,99.90
2023-03-10T04:31:37.764Z,99.90
2023-03-10T04:34:43.840Z,99.90
2023-03-10T04:37:48.594Z,99.90
2023-03-10T04:40:55.561Z,99.90
2023-03-10T04:44:02.255Z,99.90
2023-03-10T04:47:07.873Z,99.90
2023-03-10T04:50:17.329Z,99.90
2023-03-10T04:53:23.604Z,99.90
2023-03-10T04:56:28.535Z,99.90
2023-03-10T04:59:32.937Z,99.90
2023-03-10T05:02:37.619Z,99.90
2023-03-10T05:05:42.910Z,99.90
2023-03-10T05:08:48.408Z,99.90
2023-03-10T05:11:55.503Z,99.90
2023-03-10T05:15:00.577Z,99.90
2023-03-10T05:18:05.938Z,99.90
2023-03-10T05:21:10.283Z,99.90
2023-03-10T05:24:15.134Z,99.90
2023-03-10T05:27:19.882Z,99.90
2023-03-10T05:30:25.141Z,99.90
2023-03-10T05:33:32.726Z,99.90
2023-03-10T05:36:39.729Z,99.90
2023-03-10T05:39:45.020Z,99.90
2023-03-10T05:42:54.706Z,99.90
2023-03-10T05:46:01.040Z,99.90
2023-03-10T05:49:08.851Z,99.90
2023-03-10T05:52:13.288Z,99.90
2023-03-10T05:55:20.695Z,99.90
2023-03-10T05:58:26.984Z,99.90
2023-03-10T06:01:31.996Z,99.90
2023-03-10T06:04:36.610Z,99.90
2023-03-10T06:07:41.793Z,99.90
2023-03-10T06:10:46.597Z,99.90
2023-03-10T06:13:51.225Z,99.90
2023-03-10T06:16:56.387Z,99.90
2023-03-10T06:20:01.868Z,99.90
2023-03-10T06:23:06.255Z,99.90
2023-03-10T06:26:15.932Z,99.90
2023-03-10T06:29:20.321Z,99.90
2023-03-10T06:32:24.792Z,99.90
2023-03-10T06:35:31.260Z,99.90
2023-03-10T06:38:36.003Z,99.90
2023-03-10T06:41:40.589Z,99.90
2023-03-10T06:44:45.711Z,99.90
2023-03-10T06:47:51.175Z,99.90
2023-03-10T06:50:58.287Z,99.90
2023-03-10T06:54:02.608Z,99.90
2023-03-10T06:57:07.292Z,99.90
2023-03-10T07:00:15.662Z,99.90
2023-03-10T07:03:21.321Z,99.90
2023-03-10T07:06:25.793Z,99.90
2023-03-10T07:09:30.390Z,99.90
2023-03-10T07:12:34.789Z,99.90
2023-03-10T07:15:39.971Z,99.90
2023-03-10T07:18:44.564Z,99.90
2023-03-10T07:21:49.357Z,99.90
2023-03-10T07:24:55.086Z,99.90
2023-03-10T07:27:59.378Z,99.90
2023-03-10T07:31:09.147Z,99.90
2023-03-10T07:34:14.049Z,99.90
2023-03-10T07:37:18.248Z,99.90
2023-03-10T07:40:24.893Z,99.90
2023-03-10T07:43:29.701Z,99.90
2023-03-10T07:46:34.532Z,99.90
2023-03-10T07:49:39.065Z,99.90
2023-03-10T07:52:43.639Z,99.90
2023-03-10T07:55:47.975Z,99.90
2023-03-10T07:58:52.526Z,99.90
2023-03-10T08:01:57.385Z,99.90
2023-03-10T08:05:01.934Z,99.90
2023-03-10T08:08:06.691Z,99.90
2023-03-10T08:11:11.395Z,99.90
2023-03-10T08:14:20.934Z,99.90
2023-03-10T08:17:30.623Z,99.90
2023-03-10T08:20:36.790Z,99.90
2023-03-10T08:23:41.373Z,99.90
2023-03-10T08:26:45.675Z,99.90
2023-03-10T08:29:50.054Z,97.10
2023-03-10T08:32:54.555Z,82.40
2023-03-10T08:36:16.894Z,52.30
2023-03-10T08:39:21.344Z,1.00
2023-03-10T08:42:26.607Z,1.00
2023-03-10T08:45:31.254Z,1.00
2023-03-10T08:48:36.005Z,99.90
2023-03-10T08:51:41.571Z,99.90
2023-03-10T08:54:46.037Z,99.90
2023-03-10T08:57:50.516Z,99.90
2023-03-10T09:00:54.827Z,58.60
2023-03-10T09:04:00.445Z,42.70
2023-03-10T09:07:04.895Z,1.00
2023-03-10T09:10:09.801Z,1.00
2023-03-10T09:13:15.002Z,99.90
2023-03-10T09:16:19.614Z,99.90
2023-03-10T09:19:24.166Z,99.90
2023-03-10T09:22:28.285Z,99.90
2023-03-10T09:25:32.745Z,99.90
2023-03-10T09:28:37.497Z,1.00
2023-03-10T09:31:43.612Z,99.90
2023-03-10T09:34:48.137Z,99.90
2023-03-10T09:37:52.644Z,58.60
2023-03-10T09:41:22.401Z,1.00
2023-03-10T09:44:37.815Z,99.90
2023-03-10T09:47:59.894Z,99.90
2023-03-10T09:51:26.048Z,72.30
2023-03-10T09:54:57.142Z,99.90
2023-03-10T09:58:03.918Z,99.90
2023-03-10T10:01:33.789Z,1.00
2023-03-10T10:04:40.213Z,1.00
2023-03-10T10:07:50.552Z,99.90
2023-03-10T10:10:59.684Z,99.90
2023-03-10T10:14:38.453Z,99.90
2023-03-10T10:18:19.709Z,99.90
2023-03-10T10:21:42.610Z,61.00
2023-03-10T10:25:16.678Z,83.80
2023-03-10T10:28:38.115Z,99.90
2023-03-10T10:31:42.425Z,1.00
2023-03-10T10:34:47.386Z,99.90
2023-03-10T10:38:09.927Z,99.90
2023-03-10T10:41:21.935Z,1.00
2023-03-10T10:44:26.264Z,99.90
2023-03-10T10:47:32.568Z,99.90
2023-03-10T10:50:37.562Z,99.90
2023-03-10T10:53:42.575Z,99.90
2023-03-10T10:56:55.683Z,99.90
2023-03-10T11:00:38.712Z,99.90
2023-03-10T11:03:48.055Z,99.90
2023-03-10T11:06:52.973Z,99.90
2023-03-10T11:09:58.029Z,99.90
2023-03-10T11:13:44.742Z,99.90
2023-03-10T11:17:18.785Z,98.70
2023-03-10T11:20:51.598Z,99.90
2023-03-10T11:23:58.743Z,99.90
2023-03-10T11:27:38.289Z,82.90
2023-03-10T11:30:56.482Z,91.90
2023-03-10T11:34:31.940Z,99.90
2023-03-10T11:37:44.068Z,99.90
2023-03-10T11:40:54.120Z,99.90
2023-03-10T11:44:29.623Z,99.90
2023-03-10T11:47:54.409Z,92.60
2023-03-10T11:51:04.368Z,99.90
2023-03-10T11:54:28.745Z,99.90
2023-03-10T11:57:40.862Z,99.90
2023-03-10T12:00:46.589Z,96.90
2023-03-10T12:03:55.739Z,1.00
2023-03-10T12:07:03.681Z,1.00
2023-03-10T12:10:18.165Z,1.00
2023-03-10T12:13:30.634Z,1.00
2023-03-10T12:16:41.408Z,1.00
2023-03-10T12:20:12.087Z,1.00
2023-03-10T12:23:25.515Z,1.00
2023-03-10T12:26:38.987Z,1.00
2023-03-10T12:29:44.162Z,3.20
2023-03-10T12:32:48.331Z,99.90
2023-03-10T12:35:55.145Z,99.90
2023-03-10T12:39:11.627Z,99.90
2023-03-10T12:42:35.204Z,99.90
2023-03-10T12:45:45.159Z,99.90
2023-03-10T12:49:13.907Z,99.90
2023-03-10T12:52:21.069Z,70.60
2023-03-10T12:55:28.355Z,2.20
2023-03-10T12:58:35.881Z,92.00
2023-03-10T13:01:55.434Z,99.90
2023-03-10T13:05:06.155Z,99.90
2023-03-10T13:08:20.082Z,1.00
2023-03-10T13:11:29.074Z,1.00
2023-03-10T13:14:39.237Z,47.30
2023-03-10T13:17:43.862Z,77.40
2023-03-10T13:20:49.229Z,99.90
2023-03-10T13:23:53.987Z,99.90
2023-03-10T13:27:10.780Z,99.90
2023-03-10T13:30:21.284Z,99.90
2023-03-10T13:33:27.722Z,99.90
2023-03-10T13:36:37.903Z,46.80
2023-03-10T13:39:42.516Z,28.80
2023-03-10T13:42:48.015Z,36.00
2023-03-10T13:45:59.951Z,17.60
2023-03-10T13:49:07.282Z,45.90
2023-03-10T13:52:17.598Z,80.10
2023-03-10T13:55:22.033Z,99.90
2023-03-10T13:58:26.786Z,99.90
2023-03-10T14:01:34.844Z,99.90
2023-03-10T14:04:49.013Z,99.90
2023-03-10T14:08:00.883Z,99.90
2023-03-10T14:11:32.070Z,99.90
2023-03-10T14:14:38.628Z,99.90
2023-03-10T14:17:44.836Z,99.90
2023-03-10T14:20:49.096Z,99.90
2023-03-10T14:23:56.804Z,99.90
2023-03-10T14:27:01.221Z,99.90
2023-03-10T14:30:20.244Z,99.90
2023-03-10T14:33:24.662Z,99.90
2023-03-10T14:36:29.228Z,99.90
2023-03-10T14:39:34.695Z,99.90
2023-03-10T14:42:39.634Z,99.90
2023-03-10T14:45:45.057Z,99.90
2023-03-10T14:48:49.654Z,99.90
2023-03-10T14:51:54.294Z,99.90
2023-03-10T14:54:58.577Z,1.00
2023-03-10T14:58:05.154Z,50.20
2023-03-10T15:01:09.677Z,99.90
2023-03-10T15:04:15.967Z,99.90
2023-03-10T15:07:20.161Z,99.90
2023-03-10T15:10:24.615Z,99.90
2023-03-10T15:13:29.360Z,99.90
2023-03-10T15:16:33.936Z,99.90
2023-03-10T15:19:38.513Z,99.90
2023-03-10T15:22:44.504Z,99.90
2023-03-10T15:25:49.079Z,99.90
2023-03-10T15:28:53.171Z,99.90
2023-03-10T15:31:58.340Z,99.90
2023-03-10T15:35:04.526Z,99.90
2023-03-10T15:38:10.434Z,99.90
2023-03-10T15:41:16.992Z,99.90
2023-03-10T15:44:21.468Z,1.00
2023-03-10T15:47:25.624Z,1.00
2023-03-10T15:50:29.990Z,49.30
2023-03-10T15:53:34.576Z,99.90
2023-03-10T15:56:39.965Z,99.90
2023-03-10T15:59:44.413Z,99.90
2023-03-10T16:02:50.546Z,99.90
2023-03-10T16:05:55.020Z,99.90
2023-03-10T16:08:59.764Z,99.90
2023-03-10T16:12:04.205Z,99.90
2023-03-10T16:15:09.732Z,99.90
2023-03-10T16:18:15.035Z,99.90
2023-03-10T16:21:20.028Z,99.90
2023-03-10T16:24:24.235Z,99.90
2023-03-10T16:27:28.769Z,99.90
2023-03-10T16:30:33.365Z,99.90
2023-03-10T16:33:38.183Z,99.90
2023-03-10T16:36:42.653Z,99.90
2023-03-10T16:39:47.075Z,99.90
2023-03-10T16:42:51.478Z,99.90
2023-03-10T16:46:14.851Z,99.90
2023-03-10T16:49:19.696Z,99.90
2023-03-10T16:52:23.735Z,99.90
2023-03-10T16:55:28.108Z,99.90
2023-03-10T16:58:33.974Z,99.90
2023-03-10T17:01:38.770Z,99.90
2023-03-10T17:04:43.457Z,99.90
2023-03-10T17:07:55.466Z,99.90
2023-03-10T17:11:00.333Z,99.90
2023-03-10T17:14:07.185Z,99.90
2023-03-10T17:17:11.504Z,99.90
2023-03-10T17:20:17.860Z,99.90
2023-03-10T17:23:23.714Z,99.90
2023-03-10T17:26:29.023Z,99.90
2023-03-10T17:29:33.660Z,99.90
2023-03-10T17:32:38.266Z,99.90
2023-03-10T17:35:43.120Z,1.00
2023-03-10T17:38:47.687Z,1.00
2023-03-10T17:41:52.059Z,1.00
2023-03-10T17:44:56.757Z,1.00
2023-03-10T17:48:01.078Z,1.00
2023-03-10T17:51:05.848Z,1.00
2023-03-10T17:54:13.755Z,1.00
2023-03-10T17:57:18.184Z,1.00
2023-03-10T18:00:23.388Z,1.00
2023-03-10T18:03:27.861Z,1.00
2023-03-10T18:06:34.776Z,1.00
2023-03-10T18:09:40.186Z,11.40
2023-03-10T18:12:44.328Z,25.10
2023-03-10T18:15:51.059Z,36.30
2023-03-10T18:18:57.232Z,55.00
2023-03-10T18:22:05.489Z,68.80
2023-03-10T18:25:10.851Z,80.60
2023-03-10T18:28:16.791Z,92.70
2023-03-10T18:31:25.112Z,98.00
2023-03-10T18:34:29.755Z,99.90
2023-03-10T18:37:34.230Z,99.90
2023-03-10T18:40:39.266Z,99.90
2023-03-10T18:43:43.575Z,99.90
2023-03-10T18:46:47.996Z,99.90
2023-03-10T18:49:52.148Z,99.90
2023-03-10T18:52:56.630Z,99.90
2023-03-10T18:56:01.037Z,99.90
2023-03-10T18:59:05.284Z,99.90
2023-03-10T19:02:16.167Z,99.90
2023-03-10T19:05:20.727Z,99.90
2023-03-10T19:08:26.938Z,99.90
2023-03-10T19:11:38.381Z,99.90
2023-03-10T19:14:44.646Z,99.90
2023-03-10T19:17:49.065Z,99.90
2023-03-10T19:20:59.738Z,99.90
2023-03-10T19:24:05.304Z,99.90
2023-03-10T19:27:09.978Z,99.90
2023-03-10T19:30:17.122Z,99.90
2023-03-10T19:33:21.872Z,99.90
2023-03-10T19:36:26.820Z,99.90
2023-03-10T19:39:31.103Z,99.90
2023-03-10T19:42:38.374Z,99.90
2023-03-10T19:45:43.007Z,99.90
2023-03-10T19:48:47.373Z,99.90
2023-03-10T19:51:51.960Z,99.90
2023-03-10T19:54:56.882Z,99.90
2023-03-10T19:58:01.330Z,99.90
2023-03-10T20:01:05.819Z,99.90
2023-03-10T20:04:10.522Z,99.90
2023-03-10T20:07:14.714Z,99.90
2023-03-10T20:10:19.319Z,99.90
2023-03-10T20:13:23.942Z,99.90
2023-03-10T20:16:28.629Z,99.90
2023-03-10T20:19:32.839Z,99.90
2023-03-10T20:22:42.722Z,99.90
2023-03-10T20:25:47.117Z,99.90
2023-03-10T20:28:52.547Z,99.90
2023-03-10T20:31:57.202Z,99.90
2023-03-10T20:35:03.433Z,99.90
2023-03-10T20:38:08.163Z,99.90
2023-03-10T20:41:17.137Z,99.90
2023-03-10T20:44:21.760Z,99.90
2023-03-10T20:47:26.135Z,99.90
2023-03-10T20:50:30.925Z,99.90
2023-03-10T20:53:37.317Z,99.90
2023-03-10T20:56:41.604Z,99.90
2023-03-10T20:59:46.046Z,99.90
2023-03-10T21:02:52.747Z,99.90
2023-03-10T21:05:58.012Z,99.90
2023-03-10T21:09:05.779Z,99.90
2023-03-10T21:12:10.110Z,99.90
2023-03-10T21:15:16.388Z,99.90
2023-03-10T21:18:20.773Z,99.90
2023-03-10T21:21:25.052Z,99.90
2023-03-10T21:24:29.604Z,99.90
2023-03-10T21:27:35.472Z,99.90
2023-03-10T21:30:40.422Z,99.90
2023-03-10T21:33:45.015Z,99.90
2023-03-10T21:36:49.412Z,99.90
2023-03-10T21:39:53.921Z,99.90
2023-03-10T21:43:00.175Z,99.90
2023-03-10T21:46:06.439Z,96.00
2023-03-10T21:49:10.688Z,96.70
2023-03-10T21:52:15.009Z,95.60
2023-03-10T21:55:21.515Z,96.60
2023-03-10T21:58:26.027Z,98.60
2023-03-10T22:01:30.518Z,96.50
2023-03-10T22:04:34.988Z,97.00
2023-03-10T22:07:40.093Z,96.20
2023-03-10T22:10:45.404Z,93.50
2023-03-10T22:13:49.814Z,88.80
2023-03-10T22:16:54.072Z,83.50
2023-03-10T22:19:58.828Z,72.40
2023-03-10T22:23:04.876Z,64.20
2023-03-10T22:26:10.349Z,61.60
2023-03-10T22:29:14.543Z,67.00
2023-03-10T22:32:19.134Z,61.80
2023-03-10T22:35:23.844Z,54.60
2023-03-10T22:38:28.045Z,66.10
2023-03-10T22:41:32.770Z,81.40
2023-03-10T22:44:37.668Z,92.60
2023-03-10T22:47:42.183Z,98.60
2023-03-10T22:50:46.705Z,99.90
2023-03-10T22:53:51.308Z,99.90
2023-03-10T22:56:55.629Z,99.90
2023-03-10T23:00:00.029Z,99.90
2023-03-10T23:03:06.288Z,99.90
2023-03-10T23:06:13.439Z,99.90
2023-03-10T23:09:18.082Z,99.90
2023-03-10T23:12:22.517Z,99.90
2023-03-10T23:15:31.530Z,99.90
2023-03-10T23:18:35.886Z,99.90
2023-03-10T23:21:40.492Z,99.90
2023-03-10T23:24:44.915Z,99.90
2023-03-10T23:27:49.301Z,99.90
2023-03-10T23:30:54.260Z,99.90
2023-03-10T23:33:58.675Z,99.90
2023-03-10T23:37:03.293Z,99.90
2023-03-10T23:40:11.443Z,99.90
2023-03-10T23:43:16.482Z,99.90
2023-03-10T23:46:21.951Z,99.90
2023-03-10T23:49:26.216Z,99.90
2023-03-10T23:52:31.402Z,99.90
2023-03-10T23:55:37.340Z,99.90
2023-03-10T23:58:42.006Z,99.90
